createdAt,value
2023-05-14T00:00:08.497Z,10.00
2023-05-14T00:05:31.269Z,9.70
2023-05-14T00:10:34.222Z,9.80
2023-05-14T00:15:37.054Z,10.60
2023-05-14T00:20:40.918Z,13.10
2023-05-14T00:25:43.688Z,10.80
2023-05-14T00:30:46.572Z,11.40
2023-05-14T00:35:49.412Z,12.40
2023-05-14T00:40:52.211Z,12.40
2023-05-14T00:45:55.150Z,11.00
2023-05-14T00:50:57.898Z,12.30
2023-05-14T00:56:00.681Z,13.00
2023-05-14T01:01:03.532Z,13.60
2023-05-14T01:06:19.847Z,13.60
2023-05-14T01:11:43.916Z,10.70
2023-05-14T01:16:46.856Z,11.60
2023-05-14T01:21:49.706Z,12.20
2023-05-14T01:26:53.466Z,12.50
2023-05-14T01:31:59.120Z,10.90
2023-05-14T01:37:01.964Z,12.20
2023-05-14T01:42:05.896Z,15.20
2023-05-14T01:47:08.695Z,18.90
2023-05-14T01:52:12.133Z,14.80
2023-05-14T01:57:14.861Z,15.90
2023-05-14T02:02:17.702Z,18.20
2023-05-14T02:07:20.799Z,14.20
2023-05-14T02:12:23.697Z,14.10
2023-05-14T02:17:26.490Z,14.80
2023-05-14T02:22:29.356Z,15.20
2023-05-14T02:27:32.298Z,14.70
2023-05-14T02:32:37.836Z,17.70
2023-05-14T02:37:40.771Z,17.20
2023-05-14T02:42:43.512Z,15.50
2023-05-14T02:47:46.372Z,17.30
2023-05-14T02:52:49.239Z,22.90
2023-05-14T02:57:53.299Z,21.00
2023-05-14T03:02:56.209Z,19.70
2023-05-14T03:07:59.329Z,20.00
2023-05-14T03:13:02.066Z,18.20
2023-05-14T03:18:04.985Z,18.00
2023-05-14T03:23:07.795Z,19.10
2023-05-14T03:28:10.559Z,19.70
2023-05-14T03:33:13.313Z,18.30
2023-05-14T03:38:16.356Z,18.40
2023-05-14T03:43:19.105Z,19.80
2023-05-14T03:48:21.923Z,19.00
2023-05-14T03:53:24.782Z,18.60
2023-05-14T03:58:27.550Z,20.50
2023-05-14T04:03:30.778Z,20.40
2023-05-14T04:08:33.834Z,19.20
2023-05-14T04:13:36.762Z,19.40
2023-05-14T04:18:40.241Z,19.30
2023-05-14T04:23:43.075Z,21.10
2023-05-14T04:28:45.844Z,23.10
2023-05-14T04:33:48.666Z,17.40
2023-05-14T04:38:51.687Z,18.80
2023-05-14T04:43:56.408Z,16.50
2023-05-14T04:48:59.177Z,18.40
2023-05-14T04:54:01.952Z,19.20
2023-05-14T04:59:04.754Z,16.70
2023-05-14T05:04:26.228Z,16.30
2023-05-14T05:09:29.124Z,19.30
2023-05-14T05:14:31.905Z,18.80
2023-05-14T05:19:43.078Z,17.20
2023-05-14T05:24:49.125Z,15.90
2023-05-14T05:29:52.737Z,16.60
2023-05-14T05:34:55.866Z,16.20
2023-05-14T05:39:58.655Z,15.80
2023-05-14T05:45:01.394Z,15.30
2023-05-14T05:50:05.013Z,13.50
2023-05-14T05:55:08.374Z,14.20
2023-05-14T06:00:15.294Z,14.20
2023-05-14T06:05:19.319Z,12.70
2023-05-14T06:10:22.342Z,11.90
2023-05-14T06:15:25.618Z,13.50
2023-05-14T06:20:28.408Z,11.90
2023-05-14T06:25:31.382Z,11.90
2023-05-14T06:30:34.269Z,9.40
2023-05-14T06:35:37.079Z,10.70
2023-05-14T06:40:39.932Z,11.50
2023-05-14T06:45:42.779Z,11.30
2023-05-14T06:50:47.244Z,13.20
2023-05-14T06:55:50.127Z,9.20
2023-05-14T07:00:52.941Z,9.90
2023-05-14T07:05:55.728Z,11.80
2023-05-14T07:10:58.659Z,15.00
2023-05-14T07:16:01.443Z,10.00
2023-05-14T07:21:07.712Z,12.50
2023-05-14T07:26:10.888Z,11.10
2023-05-14T07:31:13.794Z,13.20
2023-05-14T07:36:16.607Z,7.70
2023-05-14T07:41:19.459Z,7.40
2023-05-14T07:46:22.395Z,10.70
2023-05-14T07:51:28.266Z,7.80
2023-05-14T07:56:31.439Z,8.40
2023-05-14T08:01:34.203Z,6.20
2023-05-14T08:06:37.561Z,8.00
2023-05-14T08:11:41.769Z,6.90
2023-05-14T08:16:44.559Z,4.60
2023-05-14T08:21:47.350Z,4.30
2023-05-14T08:26:50.120Z,4.60
2023-05-14T08:31:52.916Z,4.40
2023-05-14T08:36:55.732Z,3.90
2023-05-14T08:41:58.649Z,6.30
2023-05-14T08:47:01.417Z,3.90
2023-05-14T08:52:07.411Z,6.50
2023-05-14T08:57:10.706Z,4.80
2023-05-14T09:02:15.125Z,6.30
2023-05-14T09:07:20.720Z,5.30
2023-05-14T09:12:23.616Z,4.90
2023-05-14T09:17:27.976Z,9.60
2023-05-14T09:22:33.373Z,4.30
2023-05-14T09:27:36.567Z,4.30
2023-05-14T09:32:44.057Z,4.60
2023-05-14T09:37:49.500Z,4.60
2023-05-14T09:42:52.218Z,6.30
2023-05-14T09:47:56.642Z,3.80
2023-05-14T09:52:59.522Z,5.50
2023-05-14T09:58:02.434Z,5.20
2023-05-14T10:03:08.181Z,4.30
2023-05-14T10:08:26.919Z,4.40
2023-05-14T10:13:38.152Z,4.90
2023-05-14T10:18:43.517Z,4.80
2023-05-14T10:23:46.437Z,6.40
2023-05-14T10:28:49.534Z,5.40
2023-05-14T10:33:58.019Z,3.80
2023-05-14T10:39:04.508Z,4.70
2023-05-14T10:44:09.981Z,4.10
2023-05-14T10:49:13.044Z,4.40
2023-05-14T10:54:16.968Z,5.20
2023-05-14T10:59:19.797Z,5.10
2023-05-14T11:04:27.200Z,4.40
2023-05-14T11:09:30.037Z,3.20
2023-05-14T11:14:34.948Z,3.70
2023-05-14T11:19:37.831Z,4.60
2023-05-14T11:24:42.527Z,6.70
2023-05-14T11:29:46.321Z,4.10
2023-05-14T11:34:49.209Z,5.00
2023-05-14T11:39:54.798Z,8.60
2023-05-14T11:44:57.624Z,4.80
2023-05-14T11:50:01.220Z,3.90
2023-05-14T11:55:04.485Z,3.80
2023-05-14T12:00:13.614Z,3.50
2023-05-14T12:05:16.666Z,3.50
2023-05-14T12:10:19.588Z,4.30
2023-05-14T12:15:24.791Z,3.00
2023-05-14T12:20:28.706Z,4.80
2023-05-14T12:25:31.723Z,3.20
2023-05-14T12:30:38.117Z,4.60
2023-05-14T12:35:41.910Z,3.50
2023-05-14T12:45:47.479Z,4.70
2023-05-14T12:50:51.297Z,5.80
2023-05-14T12:55:54.790Z,4.40
2023-05-14T13:00:57.915Z,4.40
2023-05-14T13:06:01.320Z,4.20
2023-05-14T13:11:04.271Z,5.80
2023-05-14T13:16:07.398Z,4.40
2023-05-14T13:21:10.182Z,3.90
2023-05-14T13:26:13.040Z,4.30
2023-05-14T13:31:16.362Z,2.70
2023-05-14T13:36:19.169Z,3.20
2023-05-14T13:41:22.268Z,3.20
2023-05-14T13:46:25.192Z,4.90
2023-05-14T13:51:28.170Z,6.30
2023-05-14T13:56:31.028Z,2.50
2023-05-14T14:01:33.876Z,6.50
2023-05-14T14:06:36.696Z,4.00
2023-05-14T14:11:41.019Z,5.60
2023-05-14T14:16:44.356Z,7.20
2023-05-14T14:21:47.392Z,5.60
2023-05-14T14:26:50.266Z,4.60
2023-05-14T14:31:53.485Z,3.00
2023-05-14T14:36:56.583Z,2.40
2023-05-14T14:41:59.930Z,4.60
2023-05-14T14:47:02.677Z,5.20
2023-05-14T14:52:05.558Z,4.50
2023-05-14T14:57:08.638Z,2.50
2023-05-14T15:02:11.444Z,3.80
2023-05-14T15:07:16.530Z,3.40
2023-05-14T15:12:19.254Z,3.50
2023-05-14T15:17:22.133Z,4.90
2023-05-14T15:22:24.933Z,5.70
2023-05-14T15:27:27.824Z,5.40
2023-05-14T15:32:30.773Z,3.30
2023-05-14T15:37:42.004Z,2.80
2023-05-14T15:42:44.906Z,4.20
2023-05-14T15:48:08.097Z,4.50
2023-05-14T15:53:10.970Z,3.70
2023-05-14T15:58:13.937Z,4.20
2023-05-14T16:03:17.450Z,4.90
2023-05-14T16:08:20.346Z,3.60
2023-05-14T16:13:23.121Z,3.30
2023-05-14T16:18:26.317Z,4.50
2023-05-14T16:23:29.314Z,3.30
2023-05-14T16:28:34.990Z,4.00
2023-05-14T16:33:37.902Z,4.70
2023-05-14T16:38:52.306Z,7.70
2023-05-14T16:44:03.578Z,4.50
2023-05-14T16:49:06.792Z,4.80
2023-05-14T16:54:09.904Z,3.40
2023-05-14T16:59:12.725Z,4.90
2023-05-14T17:04:17.745Z,2.90
2023-05-14T17:09:20.946Z,3.70
2023-05-14T17:14:23.915Z,5.10
2023-05-14T17:19:26.892Z,5.20
2023-05-14T17:24:29.685Z,6.20
2023-05-14T17:29:32.498Z,2.50
2023-05-14T17:34:35.406Z,5.00
2023-05-14T17:39:38.291Z,5.80
2023-05-14T17:44:41.034Z,5.00
2023-05-14T17:49:43.878Z,5.30
2023-05-14T17:54:46.806Z,5.20
2023-05-14T17:59:49.577Z,4.50
2023-05-14T18:04:52.538Z,4.20
2023-05-14T18:09:55.413Z,3.20
2023-05-14T18:14:58.198Z,4.40
2023-05-14T18:20:00.968Z,4.90
2023-05-14T18:25:04.345Z,3.00
2023-05-14T18:30:08.946Z,6.60
2023-05-14T18:35:12.335Z,2.60
2023-05-14T18:40:16.997Z,4.20
2023-05-14T18:45:22.558Z,4.70
2023-05-14T18:50:25.847Z,7.50
2023-05-14T18:55:28.895Z,8.30
2023-05-14T19:00:31.992Z,5.60
2023-05-14T19:05:34.939Z,5.00
2023-05-14T19:10:37.780Z,7.10
2023-05-14T19:15:40.855Z,7.50
2023-05-14T19:20:46.263Z,8.80
2023-05-14T19:25:49.105Z,5.50
2023-05-14T19:30:53.338Z,5.40
2023-05-14T19:35:56.341Z,6.30
2023-05-14T19:40:59.308Z,6.60
2023-05-14T19:46:04.474Z,7.10
2023-05-14T19:51:08.604Z,6.60
2023-05-14T19:56:11.508Z,7.50
2023-05-14T20:01:14.799Z,9.40
2023-05-14T20:06:18.510Z,7.60
2023-05-14T20:11:21.604Z,10.10
2023-05-14T20:16:24.734Z,7.30
2023-05-14T20:21:27.530Z,6.70
2023-05-14T20:26:30.561Z,10.00
2023-05-14T20:31:33.460Z,7.30
2023-05-14T20:36:36.284Z,8.50
2023-05-14T20:41:39.105Z,7.50
2023-05-14T20:46:41.968Z,9.90
2023-05-14T20:51:44.933Z,6.10
2023-05-14T20:56:47.717Z,10.30
2023-05-14T21:01:51.006Z,8.50
2023-05-14T21:06:54.137Z,7.90
2023-05-14T21:11:57.119Z,10.00
2023-05-14T21:17:00.163Z,7.90
2023-05-14T21:22:02.988Z,7.70
2023-05-14T21:27:06.016Z,9.00
2023-05-14T21:32:08.941Z,7.20
2023-05-14T21:37:11.737Z,10.70
2023-05-14T21:42:16.171Z,10.50
2023-05-14T21:47:19.973Z,10.10
2023-05-14T21:52:22.837Z,6.70
2023-05-14T21:57:28.240Z,9.00
2023-05-14T22:02:32.147Z,8.40
2023-05-14T22:07:35.088Z,8.20
2023-05-14T22:12:37.934Z,7.80
2023-05-14T22:17:41.409Z,7.90
2023-05-14T22:22:44.241Z,9.80
2023-05-14T22:27:47.018Z,7.90
2023-05-14T22:32:49.798Z,7.80
2023-05-14T22:37:52.640Z,6.50
2023-05-14T22:42:55.460Z,7.80
2023-05-14T22:47:58.503Z,7.40
2023-05-14T22:53:01.246Z,7.30
2023-05-14T22:58:04.122Z,7.30
2023-05-14T23:03:06.979Z,6.30
2023-05-14T23:08:10.724Z,7.70
2023-05-14T23:13:13.526Z,6.50
2023-05-14T23:18:16.577Z,7.60
2023-05-14T23:23:20.554Z,9.60
2023-05-14T23:28:23.273Z,5.20
2023-05-14T23:33:26.624Z,5.50
2023-05-14T23:38:29.404Z,6.50
2023-05-14T23:43:33.873Z,6.00
2023-05-14T23:48:36.733Z,5.50
2023-05-14T23:53:39.615Z,5.20
2023-05-14T23:58:42.485Z,4.50
